Boston, Massachusetts
Traffic Map
Current Weather Conditions
Boston, Massachusetts
Overcast Light Rain
Overcast

Feels Like: 3°
Wind Chill: Ceiling: 1100
Heat Index: Visibility: 2.5mi
Dew Point: Wind: 15mph
Humidity: 90% Direction: 40° (NE)
Pressure: 29.73in Gusts: 0mph
Raw Report DataKBOS 052154Z 04013KT 2 1/2SM -RA BR OVC011 07/06 A2973 RMK AO2 SFC VIS 6 SLP068 P0000 T00720056
Traffic Incident Summary
Active as of:
Severity:
Category:
InformationThere was an issue retrieving the traffic information for this location. Please try a different location or try again shortly.
Advertisements
Track Severe Weather on mobile